createdAt,value
2022-10-20T00:01:10.911Z,3.63
2022-10-20T00:03:38.497Z,3.22
2022-10-20T00:06:17.681Z,3.67
2022-10-20T00:08:45.187Z,3.55
2022-10-20T00:11:14.525Z,3.15
2022-10-20T00:13:42.892Z,3.67
2022-10-20T00:16:10.267Z,3.35
2022-10-20T00:18:37.226Z,4.03
2022-10-20T00:21:09.289Z,3.35
2022-10-20T00:23:36.522Z,3.20
2022-10-20T00:26:10.940Z,3.55
2022-10-20T00:28:38.127Z,3.42
2022-10-20T00:31:05.964Z,3.40
2022-10-20T00:33:33.435Z,2.95
2022-10-20T00:36:01.255Z,3.20
2022-10-20T00:38:28.190Z,3.13
2022-10-20T00:40:55.356Z,3.47
2022-10-20T00:43:22.412Z,3.50
2022-10-20T00:45:56.325Z,4.28
2022-10-20T00:48:28.051Z,3.88
2022-10-20T00:50:57.226Z,4.88
2022-10-20T00:53:27.897Z,4.13
2022-10-20T00:55:57.472Z,3.60
2022-10-20T00:58:25.656Z,3.70
2022-10-20T01:00:57.987Z,4.10
2022-10-20T01:03:30.678Z,3.73
2022-10-20T01:05:57.584Z,3.83
2022-10-20T01:08:24.398Z,4.82
2022-10-20T01:11:13.713Z,3.90
2022-10-20T01:13:52.461Z,3.63
2022-10-20T01:16:35.366Z,4.50
2022-10-20T01:19:26.379Z,3.63
2022-10-20T01:22:24.531Z,3.40
2022-10-20T01:25:14.005Z,4.13
2022-10-20T01:27:44.800Z,3.75
2022-10-20T01:30:15.894Z,4.10
2022-10-20T01:33:17.324Z,3.90
2022-10-20T01:35:54.532Z,3.65
2022-10-20T01:38:33.644Z,4.35
2022-10-20T01:41:19.080Z,4.38
2022-10-20T01:43:48.196Z,4.28
2022-10-20T01:46:17.140Z,4.00
2022-10-20T01:48:46.078Z,4.47
2022-10-20T01:51:12.867Z,3.95
2022-10-20T01:53:39.719Z,4.15
2022-10-20T01:56:12.641Z,4.05
2022-10-20T01:58:58.069Z,4.47
2022-10-20T02:01:24.882Z,3.70
2022-10-20T02:03:54.891Z,3.88
2022-10-20T02:06:47.535Z,4.70
2022-10-20T02:09:23.214Z,5.00
2022-10-20T02:12:02.273Z,4.25
2022-10-20T02:14:29.886Z,4.93
2022-10-20T02:17:02.534Z,4.65
2022-10-20T02:19:34.162Z,4.32
2022-10-20T02:22:02.787Z,4.72
2022-10-20T02:24:34.883Z,4.70
2022-10-20T02:27:08.271Z,4.57
2022-10-20T02:29:47.725Z,5.05
2022-10-20T02:32:17.229Z,5.35
2022-10-20T02:34:44.418Z,4.80
2022-10-20T02:37:11.812Z,4.97
2022-10-20T02:39:38.759Z,5.50
2022-10-20T02:42:05.857Z,4.85
2022-10-20T02:44:32.692Z,5.30
2022-10-20T02:46:59.657Z,4.82
2022-10-20T02:49:27.569Z,5.57
2022-10-20T02:51:54.345Z,4.95
2022-10-20T02:54:21.620Z,5.93
2022-10-20T02:56:48.416Z,5.40
2022-10-20T02:59:19.500Z,5.00
2022-10-20T03:01:47.115Z,5.03
2022-10-20T03:04:14.736Z,5.78
2022-10-20T03:06:42.122Z,5.97
2022-10-20T03:09:08.998Z,6.38
2022-10-20T03:11:35.944Z,5.50
2022-10-20T03:14:03.138Z,6.88
2022-10-20T03:16:30.066Z,6.60
2022-10-20T03:19:00.048Z,7.00
2022-10-20T03:23:57.191Z,7.15
2022-10-20T03:26:24.196Z,6.13
2022-10-20T03:28:51.131Z,6.93
2022-10-20T03:31:18.012Z,7.07
2022-10-20T03:33:44.957Z,7.13
2022-10-20T03:36:11.789Z,7.32
2022-10-20T03:38:43.135Z,8.48
2022-10-20T03:41:11.098Z,8.65
2022-10-20T03:43:41.494Z,7.53
2022-10-20T03:46:10.581Z,8.30
2022-10-20T03:48:39.546Z,7.80
2022-10-20T03:51:07.507Z,7.85
2022-10-20T03:53:34.417Z,8.00
2022-10-20T03:56:09.903Z,7.93
2022-10-20T03:58:37.141Z,8.18
2022-10-20T04:01:06.425Z,7.47
2022-10-20T04:03:33.731Z,7.93
2022-10-20T04:06:01.239Z,8.70
2022-10-20T04:08:28.112Z,9.18
2022-10-20T04:10:55.037Z,9.18
2022-10-20T04:13:22.005Z,8.70
2022-10-20T04:15:48.897Z,9.38
2022-10-20T04:18:15.795Z,9.38
2022-10-20T04:20:44.530Z,9.20
2022-10-20T04:23:12.000Z,9.32
2022-10-20T04:25:45.899Z,9.15
2022-10-20T04:28:13.664Z,9.32
2022-10-20T04:30:41.007Z,8.77
2022-10-20T04:33:08.060Z,9.80
2022-10-20T04:35:35.385Z,8.90
2022-10-20T04:38:02.300Z,9.40
2022-10-20T04:40:30.063Z,9.55
2022-10-20T04:42:59.956Z,10.63
2022-10-20T04:45:27.922Z,10.05
2022-10-20T04:47:55.083Z,10.32
2022-10-20T04:50:24.411Z,11.30
2022-10-20T04:52:51.597Z,10.68
2022-10-20T04:55:18.788Z,10.73
2022-10-20T04:57:45.725Z,10.38
2022-10-20T05:00:13.298Z,10.30
2022-10-20T05:02:40.146Z,10.95
2022-10-20T05:05:07.348Z,10.93
2022-10-20T05:07:34.573Z,10.82
2022-10-20T05:10:01.892Z,10.63
2022-10-20T05:12:28.781Z,11.32
2022-10-20T05:14:55.615Z,11.77
2022-10-20T05:17:22.494Z,11.05
2022-10-20T05:19:49.377Z,11.32
2022-10-20T05:22:16.205Z,12.43
2022-10-20T05:24:43.141Z,10.85
2022-10-20T05:27:09.985Z,12.43
2022-10-20T05:29:36.927Z,14.80
2022-10-20T05:32:03.903Z,12.18
2022-10-20T05:34:31.006Z,11.90
2022-10-20T05:36:57.985Z,11.93
2022-10-20T05:39:25.091Z,12.25
2022-10-20T05:41:51.907Z,11.45
2022-10-20T05:44:18.765Z,12.85
2022-10-20T05:46:45.719Z,12.02
2022-10-20T05:49:15.853Z,12.02
2022-10-20T05:51:43.815Z,12.68
2022-10-20T05:54:12.732Z,11.63
2022-10-20T05:56:39.870Z,12.07
2022-10-20T05:59:07.075Z,11.65
2022-10-20T06:01:48.248Z,12.35
2022-10-20T06:04:18.661Z,12.88
2022-10-20T06:06:45.912Z,11.73
2022-10-20T06:09:13.087Z,11.52
2022-10-20T06:11:40.101Z,11.80
2022-10-20T06:14:08.370Z,13.02
2022-10-20T06:16:35.849Z,12.35
2022-10-20T06:19:03.148Z,12.80
2022-10-20T06:21:32.760Z,11.75
2022-10-20T06:24:01.474Z,12.70
2022-10-20T06:26:32.150Z,11.98
2022-10-20T06:29:04.212Z,12.95
2022-10-20T06:31:45.945Z,13.40
2022-10-20T06:34:24.184Z,13.18
2022-10-20T06:36:52.348Z,12.48
2022-10-20T06:39:21.830Z,12.88
2022-10-20T06:41:50.722Z,11.80
2022-10-20T06:44:23.134Z,13.20
2022-10-20T06:46:52.577Z,12.30
2022-10-20T06:49:20.025Z,12.68
2022-10-20T06:51:47.151Z,11.98
2022-10-20T06:54:14.184Z,13.40
2022-10-20T06:56:41.340Z,12.63
2022-10-20T06:59:08.404Z,12.38
2022-10-20T07:01:38.389Z,12.35
2022-10-20T07:04:08.376Z,12.57
2022-10-20T07:06:40.628Z,12.95
2022-10-20T07:09:11.969Z,12.18
2022-10-20T07:11:38.881Z,12.82
2022-10-20T07:14:05.939Z,12.75
2022-10-20T07:16:34.808Z,10.82
2022-10-20T07:19:04.266Z,10.82
2022-10-20T07:21:35.834Z,12.10
2022-10-20T07:24:06.653Z,12.57
2022-10-20T07:26:35.994Z,11.18
2022-10-20T07:29:03.964Z,12.10
2022-10-20T07:31:37.256Z,12.30
2022-10-20T07:36:52.518Z,11.50
2022-10-20T07:39:19.558Z,10.95
2022-10-20T07:41:48.220Z,11.55
2022-10-20T07:44:15.905Z,10.82
2022-10-20T07:46:42.757Z,10.98
2022-10-20T07:51:56.494Z,10.75
2022-10-20T07:54:23.417Z,9.95
2022-10-20T07:56:50.335Z,11.07
2022-10-20T07:59:17.264Z,10.65
2022-10-20T08:01:44.516Z,10.82
2022-10-20T08:04:11.624Z,9.93
2022-10-20T08:06:39.452Z,10.40
2022-10-20T08:09:07.391Z,10.77
2022-10-20T08:11:34.967Z,10.38
2022-10-20T08:14:01.868Z,9.30
2022-10-20T08:21:56.561Z,9.23
2022-10-20T08:24:23.441Z,11.15
2022-10-20T08:26:50.220Z,9.32
2022-10-20T08:29:17.206Z,9.38
2022-10-20T08:31:44.712Z,8.90
2022-10-20T08:34:11.685Z,9.52
2022-10-20T08:36:38.565Z,9.73
2022-10-20T08:39:06.479Z,9.48
2022-10-20T08:42:02.577Z,9.25
2022-10-20T08:44:32.595Z,9.68
2022-10-20T08:47:02.756Z,9.05
2022-10-20T08:49:32.800Z,9.15
2022-10-20T08:52:00.533Z,8.55
2022-10-20T08:54:27.419Z,8.77
2022-10-20T08:56:54.246Z,8.38
2022-10-20T08:59:25.237Z,8.13
2022-10-20T09:01:53.159Z,9.27
2022-10-20T09:07:37.745Z,8.32
2022-10-20T09:10:13.274Z,8.25
2022-10-20T09:12:47.016Z,8.88
2022-10-20T09:15:16.778Z,8.02
2022-10-20T09:17:48.672Z,8.23
2022-10-20T09:20:39.818Z,7.68
2022-10-20T09:23:28.296Z,7.85
2022-10-20T09:25:56.666Z,7.70
2022-10-20T09:28:34.213Z,7.95
2022-10-20T09:31:30.937Z,8.13
2022-10-20T09:33:57.783Z,7.13
2022-10-20T09:36:30.017Z,7.72
2022-10-20T09:38:57.641Z,7.13
2022-10-20T09:41:28.016Z,7.75
2022-10-20T09:44:05.200Z,6.65
2022-10-20T09:46:39.986Z,7.28
2022-10-20T09:49:07.720Z,6.43
2022-10-20T09:51:35.018Z,6.10
2022-10-20T09:54:08.225Z,6.35
2022-10-20T09:59:21.627Z,6.82
2022-10-20T10:01:59.083Z,6.72
2022-10-20T10:04:40.599Z,6.93
2022-10-20T10:07:27.440Z,6.32
2022-10-20T10:10:02.480Z,6.20
2022-10-20T10:12:33.200Z,6.70
2022-10-20T10:15:23.662Z,6.68
2022-10-20T10:17:51.084Z,6.22
2022-10-20T10:20:17.798Z,5.80
2022-10-20T10:22:45.051Z,6.38
2022-10-20T10:25:18.600Z,6.32
2022-10-20T10:28:03.279Z,6.15
2022-10-20T10:30:50.171Z,5.80
2022-10-20T10:33:23.126Z,6.35
2022-10-20T10:35:50.201Z,6.15
2022-10-20T10:38:17.548Z,6.50
2022-10-20T10:40:59.422Z,7.20
2022-10-20T10:43:47.902Z,5.65
2022-10-20T10:46:37.103Z,5.85
2022-10-20T10:49:29.035Z,6.60
2022-10-20T10:52:03.744Z,6.00
2022-10-20T10:54:42.016Z,6.30
2022-10-20T10:57:32.272Z,5.93
2022-10-20T11:00:10.760Z,8.07
2022-10-20T11:03:02.259Z,6.85
2022-10-20T11:05:59.029Z,6.40
2022-10-20T11:09:07.848Z,6.72
2022-10-20T11:11:34.604Z,6.53
2022-10-20T11:14:30.700Z,6.25
2022-10-20T11:17:12.532Z,6.55
2022-10-20T11:19:57.917Z,5.93
2022-10-20T11:22:41.867Z,6.28
2022-10-20T11:25:23.865Z,6.43
2022-10-20T11:27:51.065Z,6.28
2022-10-20T11:30:22.067Z,6.75
2022-10-20T11:33:26.846Z,6.00
2022-10-20T11:35:59.307Z,6.13
2022-10-20T11:38:54.688Z,6.00
2022-10-20T11:41:39.561Z,6.80
2022-10-20T11:44:22.629Z,7.55
2022-10-20T11:46:54.164Z,6.88
2022-10-20T11:49:21.477Z,6.95
2022-10-20T11:51:51.170Z,7.10
2022-10-20T11:54:56.841Z,7.00
2022-10-20T11:57:52.289Z,7.20
2022-10-20T12:00:25.014Z,7.35
2022-10-20T12:03:19.710Z,7.22
2022-10-20T12:05:49.634Z,7.20
2022-10-20T12:08:43.634Z,7.57
2022-10-20T12:11:19.705Z,6.72
2022-10-20T12:13:55.497Z,7.10
2022-10-20T12:16:53.955Z,7.50
2022-10-20T12:19:35.237Z,6.75
2022-10-20T12:22:16.417Z,7.43
2022-10-20T12:25:03.079Z,7.28
2022-10-20T12:27:30.989Z,7.03
2022-10-20T14:15:08.442Z,16.20
2022-10-20T14:17:38.485Z,16.60
2022-10-20T14:20:29.169Z,16.07
2022-10-20T14:22:58.507Z,17.88
2022-10-20T14:25:26.631Z,17.02
2022-10-20T14:27:56.006Z,20.30
2022-10-20T14:30:24.153Z,19.40
2022-10-20T14:32:51.603Z,19.17
2022-10-20T14:35:27.396Z,19.45
2022-10-20T14:38:05.988Z,20.08
2022-10-20T14:40:38.155Z,18.65
2022-10-20T14:43:18.684Z,20.37
2022-10-20T14:45:59.167Z,19.33
2022-10-20T14:48:37.577Z,19.13
2022-10-20T14:51:36.604Z,20.48
2022-10-20T14:54:20.726Z,19.88
2022-10-20T14:56:50.658Z,20.33
2022-10-20T14:59:19.837Z,19.10
2022-10-20T15:02:11.342Z,21.60
2022-10-20T15:04:42.656Z,21.88
2022-10-20T15:07:21.448Z,20.30
2022-10-20T15:09:53.752Z,19.35
2022-10-20T15:12:37.982Z,20.38
2022-10-20T15:15:21.087Z,20.65
2022-10-20T15:17:53.455Z,20.58
2022-10-20T15:20:43.560Z,21.58
2022-10-20T15:23:14.612Z,20.52
2022-10-20T15:25:42.688Z,21.20
2022-10-20T15:28:46.095Z,21.65
2022-10-20T15:31:12.852Z,21.25
2022-10-20T15:33:40.737Z,19.45
2022-10-20T15:36:16.269Z,20.85
2022-10-20T15:38:43.784Z,20.40
2022-10-20T15:41:15.647Z,20.05
2022-10-20T15:43:42.877Z,22.20
2022-10-20T15:46:14.354Z,21.35
2022-10-20T15:48:42.023Z,20.73
2022-10-20T15:51:24.141Z,20.60
2022-10-20T15:53:51.578Z,20.73
2022-10-20T15:56:19.626Z,21.55
2022-10-20T15:58:46.865Z,20.77
2022-10-20T16:01:18.627Z,21.30
2022-10-20T16:03:46.585Z,20.42
2022-10-20T16:06:14.920Z,21.95
2022-10-20T16:08:43.396Z,20.58
2022-10-20T16:11:13.042Z,21.98
2022-10-20T16:13:43.335Z,21.30
2022-10-20T16:16:17.355Z,20.40
2022-10-20T16:18:44.535Z,21.20
2022-10-20T16:21:12.022Z,21.17
2022-10-20T16:23:42.651Z,21.58
2022-10-20T16:26:17.381Z,21.20
2022-10-20T16:28:44.317Z,21.23
2022-10-20T16:31:14.343Z,21.38
2022-10-20T16:33:41.276Z,21.33
2022-10-20T16:36:11.492Z,20.23
2022-10-20T16:38:40.235Z,20.60
2022-10-20T16:41:11.044Z,21.85
2022-10-20T16:43:43.635Z,21.45
2022-10-20T16:46:12.930Z,21.90
2022-10-20T16:48:42.622Z,21.55
2022-10-20T16:51:13.164Z,21.33
2022-10-20T16:53:40.090Z,20.95
2022-10-20T16:56:07.693Z,19.95
2022-10-20T16:58:35.429Z,20.95
2022-10-20T17:01:06.431Z,20.23
2022-10-20T17:03:33.893Z,21.52
2022-10-20T17:06:04.686Z,19.55
2022-10-20T17:08:32.298Z,20.80
2022-10-20T17:11:01.678Z,20.73
2022-10-20T17:13:29.489Z,21.90
2022-10-20T17:15:56.878Z,21.67
2022-10-20T17:18:24.275Z,20.67
2022-10-20T17:20:55.369Z,20.42
2022-10-20T17:23:23.974Z,20.67
2022-10-20T17:25:53.410Z,22.90
2022-10-20T17:28:20.433Z,20.90
2022-10-20T17:30:48.049Z,22.08
2022-10-20T17:33:15.250Z,22.20
2022-10-20T17:35:48.051Z,21.58
2022-10-20T17:38:14.878Z,21.25
2022-10-20T17:40:42.553Z,21.25
2022-10-20T17:43:09.784Z,21.13
2022-10-20T17:45:38.197Z,22.50
2022-10-20T17:48:05.972Z,21.92
2022-10-20T17:50:33.230Z,21.65
2022-10-20T17:53:03.580Z,22.42
2022-10-20T17:55:32.919Z,24.05
2022-10-20T17:58:02.464Z,22.67
2022-10-20T18:00:54.961Z,21.85
2022-10-20T18:03:19.457Z,22.88
2022-10-20T18:05:46.299Z,21.45
2022-10-20T18:08:13.183Z,24.02
2022-10-20T18:10:44.021Z,22.60
2022-10-20T18:13:11.121Z,22.70
2022-10-20T18:15:44.166Z,23.17
2022-10-20T18:18:11.020Z,23.20
2022-10-20T18:20:37.934Z,24.23
2022-10-20T18:23:04.758Z,23.10
2022-10-20T18:25:31.693Z,23.52
2022-10-20T18:27:58.493Z,23.70
2022-10-20T18:30:25.490Z,24.80
2022-10-20T18:32:52.347Z,25.50
2022-10-20T18:37:56.105Z,23.02
2022-10-20T18:40:23.384Z,22.58
2022-10-20T18:42:50.219Z,23.05
2022-10-20T18:45:17.163Z,23.52
2022-10-20T18:47:45.101Z,24.08
2022-10-20T18:50:12.264Z,24.15
2022-10-20T18:52:39.153Z,23.25
2022-10-20T18:55:07.168Z,22.60
2022-10-20T18:57:39.245Z,23.95
2022-10-20T19:00:08.300Z,26.10
2022-10-20T19:02:35.678Z,25.00
2022-10-20T19:05:04.343Z,22.45
2022-10-20T19:07:34.842Z,23.52
2022-10-20T19:10:01.993Z,24.08
2022-10-20T19:12:29.196Z,24.23
2022-10-20T19:14:56.030Z,24.58
2022-10-20T19:17:22.950Z,24.58
2022-10-20T19:19:49.841Z,24.25
2022-10-20T19:22:17.416Z,26.10
2022-10-20T19:24:44.324Z,26.75
2022-10-20T19:27:27.545Z,25.33
2022-10-20T19:32:22.910Z,23.88
2022-10-20T19:34:49.795Z,25.25
2022-10-20T19:37:16.826Z,27.05
2022-10-20T19:39:43.772Z,25.73
2022-10-20T19:42:11.635Z,27.05
2022-10-20T19:44:39.283Z,25.33
2022-10-20T19:47:07.992Z,27.35
2022-10-20T19:49:35.686Z,25.65
2022-10-20T19:52:03.710Z,24.90
2022-10-20T19:54:30.660Z,28.73
2022-10-20T19:56:57.573Z,25.35
2022-10-20T19:59:24.591Z,25.38
2022-10-20T20:01:52.690Z,26.38
2022-10-20T20:04:20.102Z,25.55
2022-10-20T20:06:46.971Z,25.73
2022-10-20T20:09:15.741Z,27.63
2022-10-20T20:11:42.897Z,26.92
2022-10-20T20:14:18.862Z,27.63
2022-10-20T20:16:46.906Z,27.25
2022-10-20T20:19:15.391Z,26.02
2022-10-20T20:21:42.317Z,32.30
2022-10-20T20:24:12.578Z,25.13
2022-10-20T20:26:39.731Z,26.90
2022-10-20T20:29:07.013Z,26.55
2022-10-20T20:31:34.309Z,28.73
2022-10-20T20:34:01.220Z,27.80
2022-10-20T20:36:29.118Z,28.80
2022-10-20T20:38:58.297Z,29.60
2022-10-20T20:41:27.674Z,26.73
2022-10-20T20:43:54.783Z,27.17
2022-10-20T20:46:23.048Z,27.40
2022-10-20T20:48:50.689Z,28.20
2022-10-20T20:51:17.552Z,26.38
2022-10-20T20:53:44.904Z,27.25
2022-10-20T20:56:14.289Z,25.10
2022-10-20T20:58:42.109Z,28.25
2022-10-20T21:01:13.289Z,27.77
2022-10-20T21:03:40.942Z,26.45
2022-10-20T21:06:10.500Z,27.02
2022-10-20T21:08:40.158Z,26.63
2022-10-20T21:11:27.329Z,27.90
2022-10-20T21:13:55.893Z,26.33
2022-10-20T21:16:34.307Z,28.17
2022-10-20T21:19:09.453Z,28.33
2022-10-20T21:21:39.260Z,27.75
2022-10-20T21:24:06.710Z,28.00
2022-10-20T21:26:33.643Z,28.35
2022-10-20T21:29:00.545Z,31.10
2022-10-20T21:31:28.625Z,31.48
2022-10-20T21:34:00.628Z,30.15
2022-10-20T21:36:29.588Z,29.95
2022-10-20T21:38:56.543Z,29.27
2022-10-20T21:41:26.259Z,31.08
2022-10-20T21:43:55.689Z,29.73
2022-10-20T21:46:26.735Z,30.95
2022-10-20T21:48:56.215Z,27.80
2022-10-20T21:51:32.154Z,28.08
2022-10-20T21:54:01.506Z,30.23
2022-10-20T21:56:28.989Z,29.98
2022-10-20T21:58:56.298Z,31.08
2022-10-20T22:01:24.748Z,28.38
2022-10-20T22:03:53.209Z,28.52
2022-10-20T22:06:22.671Z,28.60
2022-10-20T22:08:51.658Z,26.80
2022-10-20T22:11:30.761Z,28.65
2022-10-20T22:13:58.035Z,28.70
2022-10-20T22:16:27.821Z,29.42
2022-10-20T22:18:59.980Z,28.15
2022-10-20T22:21:27.978Z,30.38
2022-10-20T22:23:56.482Z,26.83
2022-10-20T22:26:29.134Z,26.80
2022-10-20T22:28:56.990Z,28.33
2022-10-20T22:31:24.699Z,27.92
2022-10-20T22:33:52.693Z,26.23
2022-10-20T22:36:19.876Z,27.20
2022-10-20T22:38:46.979Z,25.55
2022-10-20T22:41:15.940Z,26.80
2022-10-20T22:43:42.731Z,27.83
2022-10-20T22:46:09.756Z,28.85
2022-10-20T22:48:36.795Z,27.45
2022-10-20T22:51:05.556Z,25.90
2022-10-20T22:53:32.619Z,26.15
2022-10-20T22:56:10.188Z,25.83
2022-10-20T22:58:37.429Z,25.73
2022-10-20T23:01:13.675Z,25.10
2022-10-20T23:03:40.740Z,25.65
2022-10-20T23:06:14.176Z,26.40
2022-10-20T23:08:44.283Z,27.17
2022-10-20T23:11:11.756Z,24.95
2022-10-20T23:13:38.727Z,26.98
2022-10-20T23:16:06.207Z,25.45
2022-10-20T23:18:33.130Z,25.08
2022-10-20T23:21:00.099Z,23.27
2022-10-20T23:23:27.316Z,25.95
2022-10-20T23:25:54.424Z,25.35
2022-10-20T23:28:21.591Z,24.98
2022-10-20T23:30:48.353Z,23.42
2022-10-20T23:33:15.353Z,25.35
2022-10-20T23:35:42.354Z,25.63
2022-10-20T23:38:09.917Z,25.52
2022-10-20T23:40:37.530Z,25.58
2022-10-20T23:43:04.494Z,26.13
2022-10-20T23:45:34.115Z,24.30
2022-10-20T23:48:03.778Z,24.35
2022-10-20T23:50:30.599Z,25.52
2022-10-20T23:52:57.432Z,25.25
2022-10-20T23:55:24.215Z,25.38
2022-10-20T23:57:51.069Z,23.55
